Time;durP1;ratioP1;P1;durP2;ratioP2;P2;SDS_P1;SDS_P2;PMS_P1;PMS_P2;Temp;Humidity;BMP_temperature;BMP_pressure;BME280_temperature;BME280_humidity;BME280_pressure;Samples;Min_cycle;Max_cycle;Signal;HPM_P1;HPM_P2
2021/12/20 05:01:24;;;;;;;64.27;27.40;;;4.30;99.90;;;;;;5574912;23;20502;-71
2021/12/20 05:03:50;;;;;;;71.20;29.37;;;4.30;99.90;;;;;;4975567;28;20543;-72
2021/12/20 05:06:17;;;;;;;60.53;26.90;;;4.20;99.90;;;;;;4975385;28;20535;-72
2021/12/20 05:08:49;;;;;;;68.57;29.97;;;4.20;99.90;;;;;;4975155;28;20452;-72
2021/12/20 05:11:16;;;;;;;91.10;40.30;;;4.20;99.90;;;;;;4966643;28;20896;-72
2021/12/20 05:13:43;;;;;;;79.53;34.00;;;4.20;99.90;;;;;;4956189;29;21025;-72
2021/12/20 05:16:10;;;;;;;73.00;31.13;;;4.20;99.90;;;;;;4955747;28;20547;-72
2021/12/20 05:18:38;;;;;;;73.13;29.33;;;4.20;99.90;;;;;;4955814;29;20547;-72
2021/12/20 05:21:05;;;;;;;78.47;30.33;;;4.30;99.90;;;;;;4955575;28;20503;-72
2021/12/20 05:23:32;;;;;;;75.10;30.07;;;4.30;99.90;;;;;;4955589;29;20544;-72
2021/12/20 05:25:59;;;;;;;68.37;28.47;;;4.40;99.90;;;;;;4955523;29;20457;-72
2021/12/20 05:28:27;;;;;;;65.53;28.10;;;4.40;99.90;;;;;;4955520;29;20532;-72
2021/12/20 05:30:54;;;;;;;82.50;30.50;;;4.40;99.90;;;;;;4955132;28;20559;-72
2021/12/20 05:33:22;;;;;;;71.13;28.17;;;4.40;99.90;;;;;;4955596;29;20547;-72
2021/12/20 05:35:51;;;;;;;80.33;29.20;;;4.40;99.90;;;;;;4955456;29;20532;-71
2021/12/20 05:38:18;;;;;;;82.40;30.23;;;4.40;99.90;;;;;;4955219;29;20897;-74
2021/12/20 05:40:45;;;;;;;73.03;31.40;;;4.40;99.90;;;;;;4954769;28;20523;-72
2021/12/20 05:43:12;;;;;;;73.90;28.60;;;4.40;99.90;;;;;;4955537;29;20547;-72
2021/12/20 05:45:38;;;;;;;61.17;27.30;;;4.40;99.90;;;;;;4955167;29;20455;-72
2021/12/20 05:48:05;;;;;;;70.00;28.73;;;4.40;99.90;;;;;;4955178;29;20539;-72
2021/12/20 05:50:33;;;;;;;67.60;27.93;;;4.50;99.90;;;;;;4955194;28;20471;-72
2021/12/20 05:53:01;;;;;;;69.37;27.20;;;4.50;99.90;;;;;;4954905;29;20884;-72
2021/12/20 05:55:28;;;;;;;64.87;27.80;;;4.50;99.90;;;;;;4954924;29;20559;-72
2021/12/20 05:57:55;;;;;;;66.47;27.10;;;4.50;99.90;;;;;;4955207;29;20480;-72
2021/12/20 06:00:23;;;;;;;64.83;26.47;;;4.50;99.90;;;;;;4954450;28;20587;-72
2021/12/20 06:02:51;;;;;;;60.07;25.47;;;4.50;99.90;;;;;;4954909;29;20496;-73
2021/12/20 06:05:20;;;;;;;70.13;27.53;;;4.50;99.90;;;;;;4954863;29;20460;-72
2021/12/20 06:07:47;;;;;;;64.50;27.60;;;4.50;99.90;;;;;;4954436;29;20459;-72
2021/12/20 06:10:17;;;;;;;64.93;27.80;;;4.60;99.90;;;;;;4954047;28;20480;-72
2021/12/20 06:12:45;;;;;;;63.43;28.00;;;4.70;99.90;;;;;;4954854;29;20536;-73
2021/12/20 06:15:16;;;;;;;67.00;26.40;;;4.60;99.90;;;;;;4954621;29;20461;-72
2021/12/20 06:17:43;;;;;;;65.63;27.27;;;4.60;99.90;;;;;;4954731;29;20499;-72
2021/12/20 06:20:13;;;;;;;62.70;27.60;;;4.70;99.90;;;;;;4954892;28;20579;-72
2021/12/20 06:22:40;;;;;;;62.47;26.23;;;4.60;99.90;;;;;;4954459;29;20921;-73
2021/12/20 06:25:07;;;;;;;66.83;27.53;;;4.70;99.90;;;;;;4954675;28;20607;-73
2021/12/20 06:27:36;;;;;;;62.23;28.00;;;4.70;99.90;;;;;;4955508;28;20536;-71
2021/12/20 06:30:04;;;;;;;63.30;27.17;;;4.60;99.90;;;;;;4954820;29;20531;-73
2021/12/20 06:32:31;;;;;;;58.97;26.80;;;4.70;99.90;;;;;;4954217;28;20473;-72
2021/12/20 06:34:58;;;;;;;65.83;26.33;;;4.70;99.90;;;;;;4954224;29;20883;-72
2021/12/20 06:37:25;;;;;;;62.40;27.50;;;4.70;99.90;;;;;;4954145;28;20484;-72
2021/12/20 06:39:52;;;;;;;60.50;27.20;;;4.70;99.90;;;;;;4953925;29;20492;-73
2021/12/20 06:42:19;;;;;;;63.17;26.43;;;4.70;99.90;;;;;;4954141;28;20511;-71
2021/12/20 06:44:47;;;;;;;69.70;29.70;;;4.70;99.90;;;;;;4954122;29;20951;-72
2021/12/20 06:47:15;;;;;;;56.20;26.30;;;4.70;99.90;;;;;;4954069;29;21063;-72
2021/12/20 06:49:42;;;;;;;63.33;28.20;;;4.70;99.90;;;;;;4953857;29;20472;-72
2021/12/20 06:52:09;;;;;;;67.77;27.27;;;4.70;99.90;;;;;;4954116;28;20469;-73
2021/12/20 06:54:36;;;;;;;67.30;28.83;;;4.70;99.90;;;;;;4954184;29;20492;-72
2021/12/20 06:57:04;;;;;;;66.30;27.83;;;4.70;99.90;;;;;;4940395;29;20505;-72
2021/12/20 06:59:31;;;;;;;66.83;27.27;;;4.60;99.90;;;;;;4935147;29;20938;-72
2021/12/20 07:01:59;;;;;;;59.97;25.93;;;4.60;99.90;;;;;;4939206;29;20976;-70
2021/12/20 07:04:26;;;;;;;72.40;28.27;;;4.60;99.90;;;;;;4938786;29;20831;-74
2021/12/20 07:06:53;;;;;;;70.73;26.83;;;4.60;99.90;;;;;;4940616;29;20472;-74
2021/12/20 07:09:20;;;;;;;59.60;28.37;;;4.60;99.90;;;;;;4943715;29;20470;-73
2021/12/20 07:11:47;;;;;;;71.00;28.80;;;4.60;99.90;;;;;;4949868;29;20470;-73
2021/12/20 07:14:14;;;;;;;72.03;29.97;;;4.70;99.90;;;;;;4955837;29;20453;-73
2021/12/20 07:16:41;;;;;;;69.40;27.30;;;4.70;99.90;;;;;;4949885;29;20968;-74
2021/12/20 07:19:10;;;;;;;67.93;26.50;;;4.60;99.90;;;;;;4935120;29;20560;-73
2021/12/20 07:21:37;;;;;;;80.57;29.37;;;4.50;99.90;;;;;;4935554;29;20573;-74
2021/12/20 07:24:05;;;;;;;62.27;26.10;;;4.50;99.90;;;;;;4936444;29;20537;-73
2021/12/20 07:29:47;;;;;;;71.00;25.87;;;4.60;99.90;;;;;;4935035;29;20524;-74
2021/12/20 07:32:14;;;;;;;64.23;26.97;;;4.60;99.90;;;;;;4935027;29;20501;-74
2021/12/20 07:34:43;;;;;;;74.20;29.23;;;4.60;99.90;;;;;;4940612;29;20517;-74
2021/12/20 07:37:21;;;;;;;85.20;30.53;;;4.60;99.90;;;;;;4949797;29;20512;-74
2021/12/20 07:39:48;;;;;;;75.23;29.47;;;4.60;99.90;;;;;;4948322;29;20488;-74
2021/12/20 07:42:15;;;;;;;80.93;28.30;;;4.60;99.90;;;;;;4935171;29;20572;-74
2021/12/20 07:44:41;;;;;;;85.13;30.07;;;4.60;99.90;;;;;;4934645;29;20475;-74
2021/12/20 07:47:08;;;;;;;88.27;30.83;;;4.70;99.90;;;;;;4935015;29;20476;-75
2021/12/20 07:49:35;;;;;;;92.43;32.90;;;4.60;99.90;;;;;;4934706;29;20545;-74
2021/12/20 07:52:05;;;;;;;104.60;33.20;;;4.60;99.90;;;;;;4934888;29;20466;-75
2021/12/20 07:54:32;;;;;;;97.47;33.90;;;4.60;99.90;;;;;;4934699;29;20500;-74
2021/12/20 07:56:59;;;;;;;84.97;31.40;;;4.60;99.90;;;;;;4934737;29;20545;-74
2021/12/20 07:59:26;;;;;;;77.87;30.03;;;4.60;99.90;;;;;;4947542;29;20454;-74
2021/12/20 08:01:53;;;;;;;88.07;31.30;;;4.60;99.90;;;;;;4948063;29;21048;-74
2021/12/20 08:04:21;;;;;;;85.40;32.60;;;4.60;99.90;;;;;;4954985;29;20450;-72
2021/12/20 08:06:48;;;;;;;80.77;30.33;;;4.60;99.90;;;;;;4952102;29;20454;-73
2021/12/20 08:09:17;;;;;;;85.23;32.50;;;4.70;99.90;;;;;;4955663;29;20444;-75
2021/12/20 08:11:45;;;;;;;85.67;31.70;;;4.60;99.90;;;;;;4953036;29;20548;-73
2021/12/20 08:14:12;;;;;;;91.60;34.03;;;4.60;99.90;;;;;;4949734;29;20450;-74
2021/12/20 08:16:39;;;;;;;82.03;32.27;;;4.60;99.90;;;;;;4953824;29;20457;-72
2021/12/20 08:19:06;;;;;;;90.50;31.70;;;4.60;99.90;;;;;;4952281;29;20456;-74
2021/12/20 08:21:35;;;;;;;92.67;31.83;;;4.70;99.90;;;;;;4953920;29;20496;-74
2021/12/20 08:24:02;;;;;;;90.17;32.23;;;4.70;99.90;;;;;;4953466;29;20462;-73
2021/12/20 08:26:30;;;;;;;95.57;33.03;;;4.70;99.90;;;;;;4953463;29;20457;-75
2021/12/20 08:28:58;;;;;;;79.77;29.40;;;4.70;99.90;;;;;;4953902;29;20458;-74
2021/12/20 08:31:25;;;;;;;80.23;29.40;;;4.80;99.90;;;;;;4953633;29;20466;-71
2021/12/20 08:33:52;;;;;;;83.63;28.17;;;4.80;99.90;;;;;;4956555;29;20468;-74
2021/12/20 08:36:19;;;;;;;81.13;30.10;;;4.90;99.90;;;;;;4951167;29;20456;-74
2021/12/20 08:38:46;;;;;;;66.80;28.30;;;4.80;99.90;;;;;;4940873;29;20465;-75
2021/12/20 08:41:17;;;;;;;75.73;28.20;;;4.80;99.90;;;;;;4955571;29;20509;-71
2021/12/20 08:43:45;;;;;;;73.83;29.20;;;4.90;99.90;;;;;;4960331;29;20469;-73
2021/12/20 08:46:13;;;;;;;80.37;30.40;;;4.90;99.90;;;;;;4949117;29;20449;-75
2021/12/20 08:48:43;;;;;;;81.10;30.17;;;4.90;99.90;;;;;;4947029;29;20465;-72
2021/12/20 08:51:18;;;;;;;73.07;28.70;;;4.90;99.90;;;;;;4953077;29;20462;-73
2021/12/20 08:53:59;;;;;;;64.57;25.17;;;5.00;99.90;;;;;;4956628;28;20449;-71
2021/12/20 08:56:45;;;;;;;59.10;23.43;;;4.90;99.90;;;;;;4960107;29;20437;-72
2021/12/20 08:59:16;;;;;;;67.03;25.37;;;5.00;99.90;;;;;;4951821;29;20522;-75
2021/12/20 09:01:47;;;;;;;68.30;25.23;;;4.90;99.90;;;;;;4957229;29;20509;-74
2021/12/20 09:04:15;;;;;;;69.57;25.60;;;5.00;99.90;;;;;;4947549;29;20460;-74
2021/12/20 09:06:42;;;;;;;69.50;27.13;;;4.90;99.90;;;;;;4946187;29;20468;-74
2021/12/20 09:09:12;;;;;;;69.90;25.80;;;4.90;99.90;;;;;;4950981;29;20450;-75
2021/12/20 09:11:39;;;;;;;62.27;26.80;;;4.90;99.90;;;;;;4936910;29;20480;-70
2021/12/20 09:14:06;;;;;;;65.73;26.27;;;4.90;99.90;;;;;;4936869;29;20556;-72
2021/12/20 09:16:34;;;;;;;70.53;27.90;;;5.00;99.90;;;;;;4936663;29;20557;-71
2021/12/20 09:19:02;;;;;;;75.73;25.90;;;5.00;99.90;;;;;;4936441;29;20481;-75
2021/12/20 09:21:29;;;;;;;72.30;27.53;;;5.00;99.90;;;;;;4937230;29;20498;-75
2021/12/20 09:23:56;;;;;;;72.30;26.70;;;5.00;99.90;;;;;;4936623;29;20489;-75
2021/12/20 09:26:23;;;;;;;60.33;24.30;;;5.10;99.90;;;;;;4938308;29;20461;-75
2021/12/20 09:28:50;;;;;;;56.63;23.30;;;5.10;99.90;;;;;;4937665;29;20537;-71
2021/12/20 09:31:17;;;;;;;63.13;24.47;;;5.10;99.90;;;;;;4936582;29;20469;-75
2021/12/20 09:33:45;;;;;;;62.83;23.87;;;5.10;99.90;;;;;;4936609;29;20496;-75
2021/12/20 09:36:12;;;;;;;57.87;24.97;;;5.00;99.90;;;;;;4936296;29;20548;-75
2021/12/20 09:38:39;;;;;;;56.40;24.80;;;5.00;99.90;;;;;;4936383;29;20498;-75
2021/12/20 09:41:27;;;;;;;61.23;25.10;;;5.00;99.90;;;;;;4936573;29;20506;-78
2021/12/20 09:43:55;;;;;;;60.17;24.13;;;5.10;99.90;;;;;;4936681;29;20489;-75
2021/12/20 09:46:24;;;;;;;42.33;18.60;;;5.10;99.90;;;;;;4936452;29;20465;-75
2021/12/20 09:48:53;;;;;;;49.43;20.67;;;5.00;99.90;;;;;;4936230;29;20489;-75
2021/12/20 09:51:21;;;;;;;52.30;20.10;;;5.00;99.90;;;;;;4936137;29;20469;-75
2021/12/20 09:53:48;;;;;;;49.70;21.17;;;5.00;99.90;;;;;;4937063;29;20454;-74
2021/12/20 09:56:17;;;;;;;56.70;23.80;;;5.10;99.90;;;;;;4941027;29;20485;-75
2021/12/20 09:58:48;;;;;;;50.33;21.07;;;5.10;99.90;;;;;;4943780;28;20497;-75
2021/12/20 10:01:37;;;;;;;56.20;22.03;;;5.20;99.90;;;;;;4944452;29;20506;-71
2021/12/20 10:04:07;;;;;;;52.57;21.83;;;5.20;99.90;;;;;;4960972;29;20434;-72
2021/12/20 10:06:53;;;;;;;48.93;20.40;;;5.20;99.90;;;;;;4978502;28;20566;-72
2021/12/20 10:09:28;;;;;;;53.37;21.73;;;5.20;99.90;;;;;;4978531;28;20500;-72
2021/12/20 10:12:11;;;;;;;54.37;19.80;;;5.20;99.90;;;;;;4978429;29;20480;-72
2021/12/20 10:14:55;;;;;;;50.73;21.13;;;5.20;99.90;;;;;;4978444;28;20469;-72
2021/12/20 10:17:23;;;;;;;51.30;19.27;;;5.20;99.90;;;;;;4978597;28;20445;-71
2021/12/20 10:19:51;;;;;;;49.37;20.60;;;5.30;99.90;;;;;;4978027;29;20476;-72
2021/12/20 10:22:28;;;;;;;55.20;20.77;;;5.30;99.90;;;;;;4978391;28;20512;-74
2021/12/20 10:24:57;;;;;;;49.50;19.13;;;5.40;99.90;;;;;;4977786;28;20487;-73
2021/12/20 10:27:36;;;;;;;44.27;17.90;;;5.40;99.90;;;;;;4978406;28;20472;-72
2021/12/20 10:30:21;;;;;;;36.73;17.40;;;5.40;99.90;;;;;;4976405;29;20443;-73
2021/12/20 10:32:48;;;;;;;35.20;17.33;;;5.40;99.90;;;;;;4968211;29;20490;-74
2021/12/20 10:35:35;;;;;;;41.27;16.70;;;5.50;99.90;;;;;;4957712;28;20880;-68
2021/12/20 10:38:05;;;;;;;35.30;17.77;;;5.50;99.90;;;;;;4954328;29;21023;-68
2021/12/20 10:40:32;;;;;;;34.03;15.77;;;5.50;99.90;;;;;;4954066;29;20539;-68
2021/12/20 10:43:00;;;;;;;29.83;12.93;;;5.40;99.90;;;;;;4954565;29;21134;-75
2021/12/20 10:45:28;;;;;;;33.27;15.27;;;5.40;99.90;;;;;;4954943;29;20540;-75
2021/12/20 10:47:55;;;;;;;30.90;14.10;;;5.40;99.90;;;;;;4954607;29;20519;-75
2021/12/20 10:50:30;;;;;;;28.83;12.80;;;5.40;99.90;;;;;;4962443;29;20456;-73
2021/12/20 10:53:15;;;;;;;29.10;12.50;;;5.50;99.90;;;;;;4961189;29;20504;-74
2021/12/20 10:55:43;;;;;;;28.03;12.50;;;5.50;99.90;;;;;;4966033;28;20449;-73
2021/12/20 10:58:19;;;;;;;24.20;10.83;;;5.60;99.90;;;;;;4957389;29;20540;-75
2021/12/20 11:00:46;;;;;;;24.23;11.53;;;5.60;99.90;;;;;;4955554;29;20571;-75
2021/12/20 11:03:25;;;;;;;19.53;10.07;;;5.70;99.90;;;;;;4954340;29;20492;-76
2021/12/20 11:06:13;;;;;;;22.63;10.13;;;5.80;99.90;;;;;;4954425;29;20459;-75
2021/12/20 11:11:26;;;;;;;23.67;9.23;;;5.90;99.90;;;;;;4957077;29;21020;-76
2021/12/20 11:13:53;;;;;;;21.77;10.13;;;6.00;99.90;;;;;;4954502;28;20459;-74
2021/12/20 11:16:27;;;;;;;19.90;9.43;;;6.00;99.90;;;;;;4953932;29;20459;-74
2021/12/20 11:19:23;;;;;;;18.50;8.60;;;6.10;99.90;;;;;;4953692;28;20468;-74
2021/12/20 11:21:54;;;;;;;22.73;9.03;;;6.10;99.90;;;;;;4953997;29;20535;-74
2021/12/20 11:24:24;;;;;;;24.40;8.50;;;6.10;99.90;;;;;;4954815;28;20495;-75
2021/12/20 11:26:51;;;;;;;19.40;9.07;;;6.20;99.90;;;;;;4955373;28;20882;-75
2021/12/20 11:29:19;;;;;;;14.10;8.07;;;6.20;99.90;;;;;;4954507;28;20477;-74
2021/12/20 11:31:46;;;;;;;22.73;10.20;;;6.20;99.90;;;;;;4955349;28;20507;-75
2021/12/20 11:34:14;;;;;;;12.83;7.60;;;6.20;99.90;;;;;;4955531;29;20488;-75
2021/12/20 11:36:41;;;;;;;17.50;8.97;;;6.20;99.90;;;;;;4955175;28;20492;-75
2021/12/20 11:39:10;;;;;;;15.50;8.00;;;6.20;99.90;;;;;;4954274;28;20512;-75
2021/12/20 11:41:37;;;;;;;17.87;8.77;;;6.30;99.90;;;;;;4954201;28;20564;-74
2021/12/20 11:44:07;;;;;;;16.47;8.10;;;6.30;99.90;;;;;;4953964;29;21001;-75
2021/12/20 11:46:40;;;;;;;16.10;7.73;;;6.40;99.90;;;;;;4953608;29;20461;-75
2021/12/20 11:49:08;;;;;;;16.63;8.20;;;6.50;99.90;;;;;;4953302;28;20916;-75
2021/12/20 11:51:56;;;;;;;19.37;8.03;;;6.60;99.90;;;;;;4953297;28;20900;-75
2021/12/20 11:54:36;;;;;;;20.23;6.47;;;6.70;99.90;;;;;;4953615;29;21024;-75
2021/12/20 11:57:05;;;;;;;18.53;8.27;;;6.80;99.90;;;;;;4953799;29;20484;-75
2021/12/20 11:59:49;;;;;;;14.10;7.57;;;7.00;99.90;;;;;;4953420;28;20891;-74
2021/12/20 12:02:24;;;;;;;16.57;6.77;;;7.10;99.90;;;;;;4954168;28;20875;-75
2021/12/20 12:05:00;;;;;;;14.70;6.70;;;7.30;99.90;;;;;;4955363;28;20480;-74
2021/12/20 12:07:29;;;;;;;13.67;6.37;;;7.40;99.90;;;;;;4955686;28;21032;-74
2021/12/20 12:10:07;;;;;;;12.63;6.93;;;7.50;99.90;;;;;;4958068;28;20495;-75
2021/12/20 12:12:40;;;;;;;12.30;6.87;;;7.60;99.90;;;;;;4957888;29;20547;-75
2021/12/20 12:15:10;;;;;;;11.80;6.50;;;7.70;99.90;;;;;;4957900;28;20471;-75
2021/12/20 12:18:10;;;;;;;12.50;6.40;;;7.90;99.90;;;;;;4957602;29;20460;-75
2021/12/20 12:20:44;;;;;;;12.63;6.53;;;8.00;99.90;;;;;;4948632;28;21104;-75
2021/12/20 12:23:13;;;;;;;11.73;6.33;;;8.10;99.90;;;;;;4953354;29;20488;-74
2021/12/20 12:25:44;;;;;;;15.33;6.83;;;8.20;99.90;;;;;;4957851;28;20548;-74
2021/12/20 12:28:13;;;;;;;15.03;6.57;;;8.30;99.90;;;;;;4958078;28;20457;-74
2021/12/20 12:30:45;;;;;;;14.67;7.10;;;8.40;99.90;;;;;;4958365;28;20479;-75
2021/12/20 12:33:37;;;;;;;10.97;5.83;;;8.40;99.90;;;;;;4957431;28;20492;-74
2021/12/20 12:36:26;;;;;;;13.17;6.40;;;8.30;99.90;;;;;;4955974;28;20548;-75
2021/12/20 12:38:59;;;;;;;12.20;6.00;;;8.40;99.90;;;;;;4956331;29;20461;-75
2021/12/20 12:41:29;;;;;;;11.63;5.37;;;8.40;99.90;;;;;;4955547;28;20555;-75
2021/12/20 12:44:06;;;;;;;13.97;5.37;;;8.40;99.90;;;;;;4955816;28;20866;-75
2021/12/20 12:47:04;;;;;;;10.13;5.07;;;8.30;99.90;;;;;;4956130;28;20546;-75
2021/12/20 12:49:45;;;;;;;12.23;4.63;;;8.30;99.90;;;;;;4933136;28;20465;-76
2021/12/20 12:52:34;;;;;;;8.67;5.00;;;8.30;99.90;;;;;;4955611;28;20508;-76
2021/12/20 12:55:04;;;;;;;13.20;5.20;;;8.20;99.90;;;;;;4955487;29;20917;-76
2021/12/20 12:57:38;;;;;;;10.50;5.23;;;8.10;99.90;;;;;;4955905;28;20543;-76
2021/12/20 13:00:15;;;;;;;8.97;5.00;;;8.10;99.90;;;;;;4955377;28;20456;-76
2021/12/20 13:02:45;;;;;;;9.10;4.83;;;8.10;99.90;;;;;;4955449;28;20495;-76
2021/12/20 13:05:15;;;;;;;12.10;4.60;;;8.10;99.90;;;;;;4955841;28;20556;-76
2021/12/20 13:07:46;;;;;;;11.70;5.03;;;8.10;99.90;;;;;;4955597;28;20961;-76
2021/12/20 13:10:15;;;;;;;8.33;4.60;;;8.10;99.90;;;;;;4955243;28;20546;-76
2021/12/20 13:12:48;;;;;;;9.30;4.63;;;8.10;99.90;;;;;;4955294;28;20444;-76
2021/12/20 13:15:23;;;;;;;9.93;4.10;;;8.20;99.90;;;;;;4955529;28;20547;-76
2021/12/20 13:17:54;;;;;;;11.33;3.80;;;8.10;99.90;;;;;;4955357;28;20479;-75
2021/12/20 13:20:27;;;;;;;10.50;4.40;;;8.10;99.90;;;;;;4955074;28;20480;-76
2021/12/20 13:22:57;;;;;;;10.47;4.27;;;8.10;99.90;;;;;;4957153;28;20920;-76
2021/12/20 13:25:42;;;;;;;8.47;4.47;;;8.10;99.90;;;;;;4957134;28;20545;-76
2021/12/20 13:28:13;;;;;;;8.30;4.40;;;8.10;99.90;;;;;;4956661;29;20484;-75
2021/12/20 13:30:46;;;;;;;7.20;4.00;;;8.00;99.90;;;;;;4955674;29;20891;-76
2021/12/20 13:33:14;;;;;;;10.63;3.80;;;8.00;99.90;;;;;;4956495;28;21025;-75
2021/12/20 13:35:42;;;;;;;14.20;4.13;;;8.00;99.90;;;;;;4955668;28;20544;-75
2021/12/20 13:38:21;;;;;;;9.93;3.60;;;8.00;99.90;;;;;;4959279;28;20456;-75
2021/12/20 13:40:52;;;;;;;9.87;3.50;;;7.90;99.90;;;;;;4955801;28;20913;-76
2021/12/20 13:43:30;;;;;;;9.57;3.50;;;7.80;99.90;;;;;;4962725;28;20504;-76
2021/12/20 13:46:37;;;;;;;8.60;2.83;;;7.80;99.90;;;;;;4964340;29;20461;-75
2021/12/20 13:49:06;;;;;;;6.87;2.60;;;7.70;99.90;;;;;;4966562;28;20844;-76
2021/12/20 13:51:38;;;;;;;6.80;2.33;;;7.70;99.90;;;;;;4966210;28;20488;-76
2021/12/20 13:54:26;;;;;;;5.03;2.20;;;7.60;99.90;;;;;;4968673;29;20445;-76
2021/12/20 13:56:58;;;;;;;5.83;1.80;;;7.60;99.90;;;;;;4968502;28;20468;-76
2021/12/20 13:59:34;;;;;;;5.20;2.37;;;7.50;99.90;;;;;;4970405;28;21070;-74
2021/12/20 14:02:03;;;;;;;5.33;2.60;;;7.40;99.90;;;;;;4971784;28;20480;-75
2021/12/20 14:04:35;;;;;;;5.43;2.70;;;7.40;99.90;;;;;;4970093;28;20524;-74
2021/12/20 14:07:03;;;;;;;10.23;2.60;;;7.40;99.90;;;;;;4971620;28;20457;-74
2021/12/20 14:09:38;;;;;;;5.53;2.33;;;7.40;99.90;;;;;;4971731;28;20548;-76
2021/12/20 14:12:14;;;;;;;4.30;2.33;;;7.30;99.90;;;;;;4963199;28;20468;-75
2021/12/20 14:15:00;;;;;;;7.77;2.70;;;7.30;99.90;;;;;;4962903;28;20523;-74
2021/12/20 14:17:27;;;;;;;7.23;2.57;;;7.30;99.90;;;;;;4970679;28;20508;-75
2021/12/20 14:20:06;;;;;;;7.60;2.93;;;7.30;99.90;;;;;;4972845;28;20484;-73
2021/12/20 14:22:49;;;;;;;11.60;3.30;;;7.20;99.90;;;;;;4971666;28;20468;-75
2021/12/20 14:25:16;;;;;;;6.90;2.37;;;7.10;99.90;;;;;;4970747;28;20813;-75
2021/12/20 14:27:43;;;;;;;8.07;3.60;;;7.10;99.90;;;;;;4971161;28;20456;-74
2021/12/20 14:30:26;;;;;;;7.60;2.90;;;7.20;99.90;;;;;;4969448;28;20485;-75
2021/12/20 14:32:54;;;;;;;5.13;2.87;;;7.20;99.90;;;;;;4968689;28;20457;-74
2021/12/20 14:35:26;;;;;;;5.77;3.00;;;7.10;99.90;;;;;;4969108;28;20468;-74
2021/12/20 14:37:54;;;;;;;10.73;3.00;;;7.10;99.90;;;;;;4970887;28;20468;-74
2021/12/20 14:40:43;;;;;;;9.63;3.27;;;7.00;99.90;;;;;;4971173;28;20527;-74
2021/12/20 14:43:13;;;;;;;5.43;2.90;;;7.00;99.90;;;;;;4970857;28;20492;-75
2021/12/20 14:45:43;;;;;;;6.10;3.00;;;7.00;99.90;;;;;;4969955;28;20480;-75
2021/12/20 14:48:25;;;;;;;5.80;3.20;;;7.00;99.90;;;;;;4968593;28;20446;-75
2021/12/20 14:50:52;;;;;;;8.13;3.20;;;6.90;99.90;;;;;;4967466;28;21005;-75
2021/12/20 14:53:20;;;;;;;11.70;3.07;;;6.90;99.90;;;;;;4967487;28;20503;-75
2021/12/20 14:55:48;;;;;;;5.33;3.33;;;6.80;99.90;;;;;;4968266;28;20969;-75
2021/12/20 14:58:15;;;;;;;9.90;3.87;;;6.70;99.90;;;;;;4966651;28;20507;-75
2021/12/20 15:00:47;;;;;;;8.07;3.60;;;6.80;99.90;;;;;;4965633;28;20544;-76
2021/12/20 15:03:16;;;;;;;5.67;3.63;;;6.80;99.90;;;;;;4965918;28;20934;-75
2021/12/20 15:05:45;;;;;;;13.57;3.83;;;6.70;99.90;;;;;;4967376;28;20465;-75
2021/12/20 15:08:13;;;;;;;9.17;3.60;;;6.70;99.90;;;;;;4965626;28;20484;-74
2021/12/20 15:10:40;;;;;;;7.70;4.57;;;6.70;99.90;;;;;;4963605;28;20496;-76
2021/12/20 15:13:07;;;;;;;9.20;4.40;;;6.70;99.90;;;;;;4962034;28;20481;-75
2021/12/20 15:15:34;;;;;;;8.67;3.70;;;6.70;99.90;;;;;;4963324;28;20463;-75
2021/12/20 15:18:02;;;;;;;9.90;3.30;;;6.70;99.90;;;;;;4962930;28;20480;-75
2021/12/20 15:20:29;;;;;;;9.30;2.70;;;6.60;99.90;;;;;;4965351;28;20460;-75
2021/12/20 15:22:57;;;;;;;6.53;2.83;;;6.60;99.90;;;;;;4963099;28;20982;-76
2021/12/20 15:25:24;;;;;;;7.57;3.47;;;6.50;99.90;;;;;;4967732;28;20516;-73
2021/12/20 15:27:52;;;;;;;4.50;2.53;;;6.50;99.90;;;;;;4973087;28;20453;-73
2021/12/20 15:30:21;;;;;;;10.43;3.13;;;6.40;99.90;;;;;;4970757;28;20445;-74
2021/12/20 15:32:49;;;;;;;15.07;4.70;;;6.30;99.90;;;;;;4977475;28;20440;-72
2021/12/20 15:35:18;;;;;;;15.43;5.00;;;6.30;99.90;;;;;;4976264;28;20457;-75
2021/12/20 15:37:45;;;;;;;11.73;4.00;;;6.30;99.90;;;;;;4956836;28;20453;-75
2021/12/20 15:40:13;;;;;;;14.13;4.47;;;6.20;99.90;;;;;;4957378;28;20698;-75
2021/12/20 15:42:47;;;;;;;16.50;4.00;;;6.10;99.90;;;;;;4958346;28;20535;-75
2021/12/20 15:45:15;;;;;;;8.27;3.60;;;6.10;99.90;;;;;;4968581;28;20881;-75
2021/12/20 15:47:42;;;;;;;10.50;3.67;;;6.00;99.90;;;;;;4970978;28;20436;-74
2021/12/20 15:50:09;;;;;;;11.40;3.20;;;5.90;99.90;;;;;;4969043;28;20484;-75
2021/12/20 15:52:38;;;;;;;9.53;2.80;;;5.90;99.90;;;;;;4977400;28;20453;-73
2021/12/20 15:55:06;;;;;;;12.90;3.33;;;5.80;99.90;;;;;;4979215;28;20532;-72
2021/12/20 15:57:33;;;;;;;8.13;3.30;;;5.70;99.90;;;;;;4978548;28;20432;-74
2021/12/20 16:00:01;;;;;;;9.13;3.50;;;5.70;99.90;;;;;;4978298;28;20444;-73
2021/12/20 16:02:28;;;;;;;6.60;2.97;;;5.60;99.90;;;;;;4975200;28;20472;-74
2021/12/20 16:04:54;;;;;;;11.20;3.70;;;5.60;99.90;;;;;;4957134;28;20572;-72
2021/12/20 16:07:21;;;;;;;7.37;3.40;;;5.60;99.90;;;;;;4957522;28;20467;-72
2021/12/20 16:09:50;;;;;;;9.60;3.50;;;5.50;99.90;;;;;;4956662;28;20872;-72
2021/12/20 16:12:16;;;;;;;8.73;4.00;;;5.50;99.90;;;;;;4957179;28;20572;-72
2021/12/20 16:14:43;;;;;;;12.03;4.07;;;5.40;99.90;;;;;;4956962;28;20540;-72
2021/12/20 16:17:10;;;;;;;10.03;3.73;;;5.30;99.90;;;;;;4957041;28;20887;-72
2021/12/20 16:19:37;;;;;;;9.73;4.37;;;5.30;99.90;;;;;;4956663;28;20488;-72
2021/12/20 16:22:17;;;;;;;9.43;3.60;;;5.20;99.90;;;;;;4967753;28;20500;-74
2021/12/20 16:24:44;;;;;;;9.73;4.30;;;5.20;99.90;;;;;;4959016;28;20500;-74
2021/12/20 16:27:12;;;;;;;11.20;4.27;;;5.10;99.90;;;;;;4969025;28;20468;-74
2021/12/20 16:29:39;;;;;;;10.93;4.23;;;5.00;99.90;;;;;;4973815;28;20520;-75
2021/12/20 16:32:07;;;;;;;7.77;3.83;;;5.00;99.90;;;;;;4965499;28;20856;-75
2021/12/20 16:34:34;;;;;;;12.70;4.50;;;4.90;99.90;;;;;;4965147;28;20480;-75
2021/12/20 16:37:01;;;;;;;7.17;3.93;;;4.90;99.90;;;;;;4962669;28;20508;-74
2021/12/20 16:39:31;;;;;;;23.10;4.70;;;4.80;99.90;;;;;;4963065;29;20457;-74
2021/12/20 16:41:59;;;;;;;10.97;4.63;;;4.80;99.90;;;;;;4957797;28;20504;-75
2021/12/20 16:44:36;;;;;;;10.50;4.97;;;4.80;99.90;;;;;;4958239;28;20579;-74
2021/12/20 16:47:18;;;;;;;9.43;5.47;;;4.80;99.90;;;;;;4958252;28;20467;-74
2021/12/20 16:49:46;;;;;;;10.93;5.37;;;4.60;99.90;;;;;;4959365;28;20492;-75
2021/12/20 16:52:15;;;;;;;10.40;4.90;;;4.60;99.90;;;;;;4960844;28;20482;-74
2021/12/20 16:54:43;;;;;;;10.47;4.63;;;4.50;99.90;;;;;;4960122;28;20457;-73
2021/12/20 16:57:10;;;;;;;13.10;5.47;;;4.50;99.90;;;;;;4959130;28;20520;-75
2021/12/20 16:59:38;;;;;;;10.37;5.37;;;4.40;99.90;;;;;;4957199;28;20492;-74
2021/12/20 17:02:06;;;;;;;13.93;5.40;;;4.30;99.90;;;;;;4957507;28;20563;-74
2021/12/20 17:04:40;;;;;;;14.57;6.70;;;4.30;99.90;;;;;;4958175;28;20899;-74
2021/12/20 17:07:09;;;;;;;17.63;5.93;;;4.20;99.90;;;;;;4957087;28;20511;-74
2021/12/20 17:09:36;;;;;;;12.20;5.93;;;4.20;99.90;;;;;;4956399;28;20963;-75
2021/12/20 17:12:04;;;;;;;11.43;5.73;;;4.10;99.90;;;;;;4956826;28;20559;-75
2021/12/20 17:14:30;;;;;;;13.40;6.00;;;4.10;99.90;;;;;;4979262;23;21683;-72
2021/12/20 17:16:59;;;;;;;14.10;4.40;;;4.00;99.90;;;;;;4954957;29;20492;-72
2021/12/20 17:19:27;;;;;;;10.80;5.00;;;4.00;99.90;;;;;;4955797;28;20573;-72
2021/12/20 17:21:55;;;;;;;12.43;5.20;;;3.90;99.90;;;;;;4955874;29;20496;-73
2021/12/20 17:24:22;;;;;;;9.47;5.43;;;3.90;99.90;;;;;;4955613;28;20525;-72
2021/12/20 17:26:49;;;;;;;17.93;5.80;;;3.80;99.90;;;;;;4955731;28;20540;-72
2021/12/20 17:29:16;;;;;;;15.43;8.40;;;3.70;99.90;;;;;;4955464;29;20539;-72
2021/12/20 17:31:43;;;;;;;12.70;6.97;;;3.70;99.90;;;;;;4955604;28;20447;-71
2021/12/20 17:34:11;;;;;;;18.40;7.97;;;3.70;99.90;;;;;;4955578;28;20543;-72
2021/12/20 17:36:38;;;;;;;14.77;7.60;;;3.70;99.90;;;;;;4955476;28;20544;-73
2021/12/20 17:39:05;;;;;;;13.60;7.03;;;3.60;99.90;;;;;;4955273;28;20977;-73
2021/12/20 17:41:32;;;;;;;15.93;6.83;;;3.60;99.90;;;;;;4955295;28;20461;-72
2021/12/20 17:43:59;;;;;;;15.43;5.97;;;3.60;99.90;;;;;;4955670;28;20525;-72
2021/12/20 17:46:26;;;;;;;17.70;6.47;;;3.50;99.90;;;;;;4955648;28;20499;-72
2021/12/20 17:48:53;;;;;;;17.37;6.97;;;3.50;99.90;;;;;;4955149;28;20540;-73
2021/12/20 17:51:22;;;;;;;20.43;8.47;;;3.40;99.90;;;;;;4955423;28;20484;-73
2021/12/20 17:53:50;;;;;;;16.70;7.80;;;3.40;99.90;;;;;;4955267;28;20839;-73
2021/12/20 17:56:17;;;;;;;20.23;8.37;;;3.30;99.90;;;;;;4954005;28;20503;-72
2021/12/20 17:58:44;;;;;;;14.97;7.33;;;3.30;99.90;;;;;;4954528;28;20536;-72
2021/12/20 18:01:11;;;;;;;18.63;8.57;;;3.30;99.90;;;;;;4955128;29;20536;-72
2021/12/20 18:03:38;;;;;;;11.70;7.23;;;3.20;99.90;;;;;;4954922;28;20448;-73
2021/12/20 18:06:07;;;;;;;19.50;7.90;;;3.20;99.90;;;;;;4953958;28;20481;-72